createdAt,value
2018-10-01T00:02:09.365Z,81.20
2018-10-01T00:04:37.182Z,81.20
2018-10-01T00:07:05.620Z,81.10
2018-10-01T00:09:33.741Z,82.10
2018-10-01T00:12:01.502Z,82.10
2018-10-01T00:14:29.838Z,80.30
2018-10-01T00:16:57.569Z,80.20
2018-10-01T00:19:31.023Z,78.20
2018-10-01T00:22:04.478Z,78.00
2018-10-01T00:24:32.321Z,77.90
2018-10-01T00:26:59.894Z,77.90
2018-10-01T00:29:27.532Z,77.10
2018-10-01T00:31:55.384Z,76.30
2018-10-01T00:34:23.466Z,76.20
2018-10-01T00:36:51.232Z,75.80
2018-10-01T00:39:19.428Z,75.90
2018-10-01T00:41:47.077Z,75.80
2018-10-01T00:44:14.692Z,76.20
2018-10-01T00:46:42.600Z,76.70
2018-10-01T00:49:10.471Z,76.50
2018-10-01T00:51:39.706Z,76.50
2018-10-01T00:54:07.629Z,76.90
2018-10-01T00:56:35.320Z,76.30
2018-10-01T00:59:03.056Z,76.60
2018-10-01T01:01:30.845Z,76.80
2018-10-01T01:03:58.687Z,76.90
2018-10-01T01:06:26.672Z,76.90
2018-10-01T01:08:54.363Z,76.60
2018-10-01T01:11:22.071Z,76.60
2018-10-01T01:13:50.073Z,75.90
2018-10-01T01:16:19.004Z,75.90
2018-10-01T01:18:48.020Z,75.60
2018-10-01T01:21:15.737Z,75.60
2018-10-01T01:23:43.652Z,75.60
2018-10-01T01:26:11.660Z,76.00
2018-10-01T01:28:40.006Z,76.70
2018-10-01T01:31:08.174Z,77.10
2018-10-01T01:33:35.897Z,76.70
2018-10-01T01:36:04.145Z,76.70
2018-10-01T01:38:31.949Z,76.40
2018-10-01T01:40:59.652Z,76.30
2018-10-01T01:43:27.418Z,76.50
2018-10-01T01:45:55.841Z,76.40
2018-10-01T01:48:23.548Z,76.70
2018-10-01T01:50:51.240Z,77.20
2018-10-01T01:53:18.835Z,77.30
2018-10-01T01:55:46.459Z,78.90
2018-10-01T01:58:14.159Z,78.80
2018-10-01T02:00:41.846Z,79.40
2018-10-01T02:03:09.669Z,79.90
2018-10-01T02:05:37.298Z,80.80
2018-10-01T02:08:05.185Z,83.40
2018-10-01T02:10:33.586Z,85.90
2018-10-01T02:13:01.247Z,85.70
2018-10-01T02:15:28.907Z,86.60
2018-10-01T02:17:56.855Z,87.90
2018-10-01T02:20:24.513Z,90.10
2018-10-01T02:22:52.204Z,90.90
2018-10-01T02:25:19.922Z,91.30
2018-10-01T02:27:47.624Z,91.20
2018-10-01T02:30:16.171Z,92.50
2018-10-01T02:32:43.990Z,94.10
2018-10-01T02:35:11.766Z,93.30
2018-10-01T02:37:40.285Z,93.50
2018-10-01T02:40:08.174Z,93.40
2018-10-01T02:42:35.819Z,93.70
2018-10-01T02:45:04.413Z,93.50
2018-10-01T02:47:32.150Z,93.50
2018-10-01T02:49:59.760Z,92.80
2018-10-01T02:52:33.065Z,92.00
2018-10-01T02:55:00.822Z,90.40
2018-10-01T02:57:28.737Z,86.70
2018-10-01T02:59:56.354Z,84.40
2018-10-01T03:02:24.158Z,83.80
2018-10-01T03:04:51.853Z,84.10
2018-10-01T03:07:19.637Z,82.80
2018-10-01T03:09:47.275Z,83.50
2018-10-01T03:12:15.232Z,84.30
2018-10-01T03:14:43.005Z,84.50
2018-10-01T03:17:10.704Z,82.90
2018-10-01T03:19:38.465Z,82.10
2018-10-01T03:22:06.202Z,81.80
2018-10-01T03:24:33.873Z,81.40
2018-10-01T03:27:01.939Z,80.70
2018-10-01T03:29:29.700Z,80.40
2018-10-01T03:31:57.559Z,80.40
2018-10-01T03:34:25.324Z,79.60
2018-10-01T03:36:53.023Z,78.60
2018-10-01T03:39:20.714Z,78.50
2018-10-01T03:41:48.346Z,77.10
2018-10-01T03:44:16.312Z,77.10
2018-10-01T03:46:44.589Z,76.50
2018-10-01T03:49:12.645Z,76.90
2018-10-01T03:51:40.269Z,76.90
2018-10-01T03:54:08.370Z,77.20
2018-10-01T03:56:36.159Z,77.70
2018-10-01T03:59:04.100Z,78.10
2018-10-01T04:01:33.094Z,79.50
2018-10-01T04:04:01.566Z,79.00
2018-10-01T04:06:29.466Z,79.50
2018-10-01T04:08:57.876Z,80.30
2018-10-01T04:11:25.793Z,80.90
2018-10-01T04:13:53.888Z,78.20
2018-10-01T04:16:22.469Z,77.50
2018-10-01T04:18:50.213Z,76.20
2018-10-01T04:21:18.237Z,75.60
2018-10-01T04:23:45.948Z,74.30
2018-10-01T04:26:14.039Z,74.00
2018-10-01T04:28:41.778Z,73.80
2018-10-01T04:31:09.473Z,73.90
2018-10-01T04:33:37.161Z,74.00
2018-10-01T04:36:04.770Z,74.90
2018-10-01T04:38:32.439Z,75.00
2018-10-01T04:41:00.072Z,74.30
2018-10-01T04:43:27.774Z,74.40
2018-10-01T04:45:55.415Z,74.20
2018-10-01T04:48:23.021Z,73.80
2018-10-01T04:50:51.357Z,73.20
2018-10-01T04:53:19.001Z,73.80
2018-10-01T04:55:46.644Z,73.80
2018-10-01T04:58:14.332Z,74.10
2018-10-01T05:00:42.114Z,74.30
2018-10-01T05:03:09.719Z,74.50
2018-10-01T05:05:37.435Z,74.70
2018-10-01T05:08:05.683Z,74.40
2018-10-01T05:10:33.370Z,74.60
2018-10-01T05:13:01.004Z,74.60
2018-10-01T05:15:29.378Z,75.00
2018-10-01T05:17:56.957Z,75.20
2018-10-01T05:20:25.273Z,75.20
2018-10-01T05:22:52.985Z,75.00
2018-10-01T05:25:20.647Z,76.40
2018-10-01T05:27:48.281Z,76.50
2018-10-01T05:30:16.013Z,78.10
2018-10-01T05:32:43.651Z,78.10
2018-10-01T05:35:11.337Z,77.80
2018-10-01T05:37:39.148Z,77.10
2018-10-01T05:40:06.918Z,76.80
2018-10-01T05:42:34.632Z,77.30
2018-10-01T05:45:05.259Z,76.40
2018-10-01T05:47:33.198Z,76.60
2018-10-01T05:50:00.878Z,76.90
2018-10-01T05:52:28.664Z,76.80
2018-10-01T05:54:56.541Z,77.40
2018-10-01T05:57:24.307Z,78.20
2018-10-01T05:59:52.582Z,79.60
2018-10-01T06:02:20.491Z,78.70
2018-10-01T06:04:48.308Z,78.20
2018-10-01T06:07:16.133Z,78.20
2018-10-01T06:09:43.936Z,77.90
2018-10-01T06:12:11.647Z,78.00
2018-10-01T06:14:39.367Z,77.70
2018-10-01T06:17:07.282Z,77.80
2018-10-01T06:19:35.167Z,77.80
2018-10-01T06:22:03.006Z,77.90
2018-10-01T06:24:30.741Z,78.00
2018-10-01T06:26:58.993Z,77.90
2018-10-01T06:29:26.603Z,77.80
2018-10-01T06:31:54.302Z,77.60
2018-10-01T06:34:22.100Z,78.00
2018-10-01T06:36:51.042Z,78.00
2018-10-01T06:39:18.758Z,77.80
2018-10-01T06:41:46.435Z,78.20
2018-10-01T06:44:14.044Z,78.10
2018-10-01T06:46:41.803Z,78.20
2018-10-01T06:49:09.667Z,78.20
2018-10-01T06:51:37.355Z,78.10
2018-10-01T06:54:04.982Z,78.20
2018-10-01T06:56:32.684Z,78.30
2018-10-01T06:59:01.149Z,78.60
2018-10-01T07:01:29.418Z,78.60
2018-10-01T07:03:57.127Z,78.20
2018-10-01T07:06:24.858Z,78.70
2018-10-01T07:08:52.628Z,77.70
2018-10-01T07:11:20.399Z,77.60
2018-10-01T07:13:48.159Z,77.70
2018-10-01T07:16:16.657Z,77.80
2018-10-01T07:18:44.266Z,78.40
2018-10-01T07:21:11.904Z,78.50
2018-10-01T07:23:39.569Z,78.60
2018-10-01T07:26:07.381Z,79.20
2018-10-01T07:28:34.999Z,78.80
2018-10-01T07:31:02.670Z,79.00
2018-10-01T07:33:30.483Z,79.60
2018-10-01T07:36:02.291Z,79.70
2018-10-01T07:38:30.214Z,80.00
2018-10-01T07:40:57.908Z,79.10
2018-10-01T07:43:26.192Z,78.50
2018-10-01T07:45:53.915Z,79.40
2018-10-01T07:48:21.694Z,79.90
2018-10-01T07:50:49.496Z,79.40
2018-10-01T07:53:17.327Z,79.40
2018-10-01T07:55:45.150Z,79.20
2018-10-01T07:58:13.069Z,78.60
2018-10-01T08:00:40.844Z,80.60
2018-10-01T08:03:08.547Z,79.10
2018-10-01T08:05:36.251Z,78.80
2018-10-01T08:08:03.910Z,79.30
2018-10-01T08:10:31.814Z,79.60
2018-10-01T08:12:59.474Z,80.60
2018-10-01T08:15:27.108Z,80.80
2018-10-01T08:17:55.006Z,81.00
2018-10-01T08:20:22.993Z,80.70
2018-10-01T08:22:50.709Z,80.40
2018-10-01T08:25:18.499Z,79.90
2018-10-01T08:27:46.190Z,79.60
2018-10-01T08:30:13.911Z,80.40
2018-10-01T08:32:41.562Z,80.70
2018-10-01T08:35:09.364Z,80.00
2018-10-01T08:37:37.169Z,79.80
2018-10-01T08:40:05.776Z,80.20
2018-10-01T08:42:35.285Z,80.70
2018-10-01T08:45:03.079Z,80.00
2018-10-01T08:47:30.764Z,80.00
2018-10-01T08:50:08.862Z,79.00
2018-10-01T08:52:45.804Z,79.40
2018-10-01T08:55:13.536Z,80.00
2018-10-01T08:57:41.229Z,79.00
2018-10-01T09:00:08.943Z,77.90
2018-10-01T09:02:36.820Z,78.80
2018-10-01T09:05:04.740Z,78.00
2018-10-01T09:07:32.417Z,77.00
2018-10-01T09:10:01.555Z,75.00
2018-10-01T09:12:29.435Z,73.30
2018-10-01T09:14:57.163Z,71.30
2018-10-01T09:17:24.828Z,71.40
2018-10-01T09:19:53.231Z,68.90
2018-10-01T09:22:20.951Z,68.50
2018-10-01T09:24:48.639Z,68.20
2018-10-01T09:27:16.386Z,67.30
2018-10-01T09:29:44.283Z,68.20
2018-10-01T09:32:12.045Z,71.30
2018-10-01T09:34:39.862Z,71.40
2018-10-01T09:37:07.722Z,69.80
2018-10-01T09:39:35.591Z,69.70
2018-10-01T09:42:03.357Z,67.40
2018-10-01T09:44:31.000Z,66.50
2018-10-01T09:46:58.722Z,66.20
2018-10-01T09:49:26.592Z,65.60
2018-10-01T09:51:54.356Z,64.80
2018-10-01T09:54:22.032Z,64.00
2018-10-01T09:56:49.741Z,63.70
2018-10-01T09:59:17.547Z,63.60
2018-10-01T10:01:45.333Z,63.10
2018-10-01T10:04:13.042Z,64.60
2018-10-01T10:06:40.835Z,64.40
2018-10-01T10:09:09.810Z,64.80
2018-10-01T10:11:37.987Z,63.10
2018-10-01T10:14:05.709Z,62.30
2018-10-01T10:16:33.400Z,62.00
2018-10-01T10:19:01.189Z,60.70
2018-10-01T10:21:28.941Z,59.40
2018-10-01T10:23:56.647Z,59.80
2018-10-01T10:26:24.613Z,59.60
2018-10-01T10:28:52.314Z,59.60
2018-10-01T10:31:20.601Z,59.40
2018-10-01T10:33:48.426Z,58.10
2018-10-01T10:36:16.045Z,58.60
2018-10-01T10:38:44.027Z,56.80
2018-10-01T10:41:11.993Z,57.10
2018-10-01T10:43:39.727Z,55.90
2018-10-01T10:46:07.485Z,53.60
2018-10-01T10:48:35.212Z,54.90
2018-10-01T10:51:03.065Z,53.60
2018-10-01T10:53:30.884Z,51.10
2018-10-01T10:55:58.558Z,51.40
2018-10-01T10:58:26.334Z,48.90
2018-10-01T11:00:54.266Z,47.90
2018-10-01T11:03:22.722Z,49.50
2018-10-01T11:05:50.535Z,50.00
2018-10-01T11:08:18.941Z,51.00
2018-10-01T11:10:47.031Z,51.50
2018-10-01T11:13:15.370Z,51.60
2018-10-01T11:15:43.004Z,52.10
2018-10-01T11:18:11.521Z,52.70
2018-10-01T11:20:39.577Z,52.00
2018-10-01T11:23:07.545Z,52.40
2018-10-01T11:25:35.357Z,52.20
2018-10-01T11:28:03.267Z,52.50
2018-10-01T11:30:31.306Z,51.90
2018-10-01T11:32:58.987Z,51.80
2018-10-01T11:35:27.342Z,53.50
2018-10-01T11:37:54.919Z,53.70
2018-10-01T11:40:22.830Z,54.40
2018-10-01T11:42:50.596Z,54.10
2018-10-01T11:45:18.452Z,53.40
2018-10-01T11:47:46.030Z,52.20
2018-10-01T11:50:13.982Z,52.50
2018-10-01T11:52:42.076Z,53.40
2018-10-01T11:55:10.436Z,53.10
2018-10-01T11:57:38.611Z,54.30
2018-10-01T12:00:08.367Z,51.70
2018-10-01T12:02:36.135Z,52.40
2018-10-01T12:05:04.820Z,52.50
